Flight Track Log - Related Links

Times and Time Zones

All times are in EDT time to prevent confusion due to time zone crossing. See the ASQ5958 flight status page for this flight to view local times or setup timezone preferences in your user account.

Time Position Orientation Groundspeed Altitude Reporting Facility
EDT Latitude Longitude Course Direction KTS MPH feet Rate Location/Type
Mon 08:10:00 AM 39.0775 -108.4906 76° East 184 212 8,000  Level Denver Center
Mon 08:11:01 AM 39.0272 -108.4553 151° Southeast 209 241 11,000 2,678 Climbing Denver Center
Mon 08:12:01 AM 39.0125 -108.3644 102° East 251 289 13,400 1,934 Climbing Denver Center
Mon 08:13:02 AM 39.0008 -108.2542 98° East 319 367 14,900 1,438 Climbing Denver Center
Mon 08:14:02 AM 38.9894 -108.1364 97° East 354 407 16,300 1,686 Climbing Denver Center
Mon 08:15:00 AM 38.8326 -107.9157 76° East  Level FlightAware Approximate
Mon 08:15:03 AM 38.9772 -108.0025 97° East 390 449 18,300  Level Denver Center
Mon 08:16:03 AM 38.9625 -107.8447 97° East 399 459 20,700 2,231 Climbing Denver Center
Mon 08:17:04 AM 38.9492 -107.7089 97° East 401 461 22,800 1,934 Climbing Denver Center
Mon 08:18:04 AM 38.9361 -107.5733 97° East 400 460 24,600 1,091 Climbing Denver Center
Mon 08:19:05 AM 38.9175 -107.4064 98° East 417 480 25,000 198 Climbing Denver Center
Mon 08:20:05 AM 38.9011 -107.2486 98° East 453 521 25,000  Level Denver Center
Mon 08:21:06 AM 38.8825 -107.0869 98° East 475 547 25,000  Level Denver Center
Mon 08:22:07 AM 38.8653 -106.9308 98° East 470 541 25,000  Level Denver Center
Mon 08:23:07 AM 38.8467 -106.7633 98° East 465 535 25,000  Level Denver Center
Mon 08:24:08 AM 38.8244 -106.5697 98° East 469 540 25,000  Level Denver Center
Mon 08:25:08 AM 38.8458 -106.4033 81° East 486 559 25,000  Level Denver Center
Mon 08:26:09 AM 38.9244 -106.2672 53° Northeast 490 564 25,000  Level Denver Center
Mon 08:27:10 AM 39.0156 -106.1178 52° Northeast 496 571 25,000  Level Denver Center
Mon 08:28:10 AM 39.1006 -105.9756 52° Northeast 497 572 25,000 -595 Level Denver Center
Mon 08:29:11 AM 39.1858 -105.8325 52° Northeast 498 573 23,800 -1,820 Descending Denver Center
Mon 08:30:12 AM 39.2653 -105.6986 53° Northeast 471 542 21,300 -2,380 Descending Denver Center
Mon 08:31:12 AM 39.3408 -105.5725 52° Northeast 445 512 19,000 -1,934 Descending Denver Center
Mon 08:32:13 AM 39.4064 -105.4625 52° Northeast 413 475 17,400 -1,623 Descending Denver Center
Mon 08:33:14 AM 39.4683 -105.3597 52° Northeast 358 412 15,700 -1,587 Descending Denver Center
Mon 08:34:14 AM 39.5256 -105.2589 54° Northeast 348 400 14,200 -843 Descending Denver Center
Mon 08:35:15 AM 39.5878 -105.1547 52° Northeast 337 388 14,000 -98 Descending Denver Center
Mon 08:36:16 AM 39.6453 -105.0539 53° Northeast 353 406 14,000  Level Denver Center
Mon 08:37:17 AM 39.7039 -104.9542 53° Northeast 346 398 14,000 -198 Level Denver Center
Mon 08:38:17 AM 39.7561 -104.8650 53° Northeast 296 341 13,600 -1,041 Descending Denver Center
Mon 08:39:18 AM 39.8294 -104.8428 13° North 277 319 11,900 -1,279 Descending Denver Center
Mon 08:40:19 AM 39.9031 -104.8375 North 263 303 11,000 -934 Descending Denver Center
Mon 08:41:20 AM 39.9747 -104.8356 North 257 296 10,000 -1,686 Descending Denver Center
Mon 08:42:20 AM 40.0417 -104.8208 10° North 253 291 7,600 -1,488 Descending Denver Center
Mon 08:43:21 AM 40.0322 -104.7483 100° East 222 255 7,000 -344 Descending Denver Center
Mon 08:44:22 AM 39.9725 -104.7117 155° Southeast 219 252 6,900 -492 Descending Denver Center
Mon 08:45:23 AM 39.9311 -104.6953 163° South 160 184 6,000 -793 Descending Denver Center
Mon 08:46:23 AM 39.8922 -104.6967 182° South 142 163 5,300 -700 Descending Denver Center
Mon 08:48:00 AM 39.8617 -104.6732 218° Southwest  Level Estimated
Mon 08:55:00 AM 39.8617 -104.6732 218° Southwest  Level Estimated
Mon 08:56:00 AM 39.8617 -104.6732 218° Southwest  Level Estimated

Login

Don't have an account? Register now (free) for customized features, flight alerts, and more!